Time;durP1;ratioP1;P1;durP2;ratioP2;P2;SDS_P1;SDS_P2;PMS_P1;PMS_P2;Temp;Humidity;BMP_temperature;BMP_pressure;BME280_temperature;BME280_humidity;BME280_pressure;Samples;Min_cycle;Max_cycle;Signal;HPM_P1;HPM_P2
2023/03/11 00:00:13;;;;;;;1.20;0.70;;;12.50;55.30;;;;;;6224407;23;20079;-71
2023/03/11 00:02:39;;;;;;;1.08;0.40;;;12.90;55.40;;;;;;6214387;23;20090;-72
2023/03/11 00:05:06;;;;;;;0.80;0.40;;;12.90;55.40;;;;;;6224395;23;19992;-72
2023/03/11 00:07:32;;;;;;;0.85;0.40;;;12.80;55.40;;;;;;6224332;23;20005;-71
2023/03/11 00:09:58;;;;;;;0.63;0.40;;;12.90;55.40;;;;;;6214285;23;20336;-71
2023/03/11 00:12:24;;;;;;;0.75;0.40;;;12.90;55.40;;;;;;6224224;23;20004;-71
2023/03/11 00:14:49;;;;;;;1.63;0.35;;;12.90;55.40;;;;;;6224298;23;19996;-71
2023/03/11 00:17:15;;;;;;;0.50;0.40;;;12.80;55.30;;;;;;6224215;23;20080;-71
2023/03/11 00:19:40;;;;;;;0.57;0.25;;;12.90;55.40;;;;;;6224322;23;19997;-71
2023/03/11 00:22:06;;;;;;;0.93;0.40;;;12.80;55.30;;;;;;6224314;23;20007;-71
2023/03/11 00:24:33;;;;;;;1.00;0.60;;;12.80;55.30;;;;;;6224303;23;20063;-71
2023/03/11 00:26:58;;;;;;;0.82;0.40;;;12.90;55.30;;;;;;6224382;23;20004;-71
2023/03/11 00:29:24;;;;;;;1.55;0.40;;;12.90;55.30;;;;;;6224220;23;19997;-71
2023/03/11 00:31:50;;;;;;;0.82;0.40;;;12.90;55.30;;;;;;6224258;23;20455;-71
2023/03/11 00:34:15;;;;;;;1.33;0.50;;;12.80;55.20;;;;;;6224181;23;20001;-71
2023/03/11 00:36:41;;;;;;;0.47;0.30;;;12.90;55.30;;;;;;6224139;23;20087;-74
2023/03/11 00:39:07;;;;;;;1.05;0.40;;;12.80;55.20;;;;;;6214142;23;20000;-74
2023/03/11 00:41:33;;;;;;;1.13;0.38;;;12.90;55.20;;;;;;6214416;23;20001;-74
2023/03/11 00:44:00;;;;;;;0.88;0.20;;;12.90;55.20;;;;;;6224098;23;20051;-74
2023/03/11 00:46:28;;;;;;;1.05;0.40;;;12.90;55.20;;;;;;6214338;23;20454;-74
2023/03/11 00:48:54;;;;;;;1.15;0.60;;;12.80;55.20;;;;;;6216381;23;20016;-74
2023/03/11 00:51:20;;;;;;;2.00;0.40;;;13.10;55.30;;;;;;6226060;23;20332;-73
2023/03/11 00:53:45;;;;;;;1.85;0.40;;;12.80;55.80;;;;;;6226025;23;20018;-74
2023/03/11 00:56:13;;;;;;;0.98;0.40;;;12.80;55.20;;;;;;6226018;23;20009;-74
2023/03/11 00:58:40;;;;;;;0.60;0.40;;;12.90;55.20;;;;;;6225888;23;19996;-74
2023/03/11 01:01:15;;;;;;;1.15;0.43;;;12.80;55.20;;;;;;6216190;23;20000;-74
2023/03/11 01:03:41;;;;;;;0.73;0.35;;;12.80;55.10;;;;;;6225702;23;20332;-73
2023/03/11 01:06:07;;;;;;;1.13;0.30;;;12.80;55.10;;;;;;6225915;23;20004;-74
2023/03/11 01:08:34;;;;;;;1.25;0.30;;;12.80;55.10;;;;;;6216051;23;20068;-74
2023/03/11 01:11:01;;;;;;;1.20;0.20;;;12.80;55.10;;;;;;6216176;23;19992;-73
2023/03/11 01:13:28;;;;;;;0.95;0.20;;;12.80;55.10;;;;;;6216108;23;20096;-74
2023/03/11 01:15:54;;;;;;;2.28;0.30;;;12.80;55.20;;;;;;6225713;23;20462;-74
2023/03/11 01:18:20;;;;;;;1.25;0.40;;;12.80;55.10;;;;;;6225796;23;20324;-73
2023/03/11 01:20:46;;;;;;;2.45;0.50;;;12.80;55.10;;;;;;6225744;23;20007;-74
2023/03/11 01:23:13;;;;;;;0.50;0.38;;;12.80;55.10;;;;;;6225738;23;20112;-74
2023/03/11 01:25:38;;;;;;;1.40;0.52;;;12.80;55.60;;;;;;6225703;23;19999;-73
2023/03/11 01:28:07;;;;;;;1.00;0.40;;;12.80;55.10;;;;;;6225744;23;20332;-74
2023/03/11 01:30:33;;;;;;;0.38;0.30;;;12.80;55.00;;;;;;6225701;23;20072;-74
2023/03/11 01:32:59;;;;;;;1.23;0.35;;;12.80;55.10;;;;;;6225777;23;20007;-71
2023/03/11 01:35:27;;;;;;;1.00;0.70;;;12.80;55.00;;;;;;6225436;23;19996;-72
2023/03/11 01:37:53;;;;;;;1.13;0.32;;;12.80;55.10;;;;;;6225491;23;20069;-71
2023/03/11 01:40:20;;;;;;;0.32;0.28;;;12.80;55.10;;;;;;6225524;23;20467;-71
2023/03/11 01:42:46;;;;;;;0.88;0.25;;;12.80;55.10;;;;;;6225508;23;20001;-71
2023/03/11 01:45:30;;;;;;;0.55;0.30;;;12.80;55.10;;;;;;6225517;23;20416;-71
2023/03/11 01:47:55;;;;;;;0.40;0.30;;;12.80;55.00;;;;;;6215494;23;20359;-71
2023/03/11 01:50:21;;;;;;;1.63;0.30;;;12.80;55.00;;;;;;6225599;23;20075;-74
2023/03/11 01:52:47;;;;;;;1.17;0.50;;;12.80;55.00;;;;;;6225561;23;20071;-74
2023/03/11 01:55:15;;;;;;;1.85;0.32;;;12.80;55.00;;;;;;6225432;23;20020;-74
2023/03/11 01:57:43;;;;;;;0.20;0.15;;;12.80;55.10;;;;;;6225252;23;20448;-74
2023/03/11 02:00:11;;;;;;;0.30;0.20;;;12.80;55.00;;;;;;6215555;23;20297;-74
2023/03/11 02:02:59;;;;;;;0.75;0.30;;;12.80;55.10;;;;;;6215229;23;20019;-74
2023/03/11 02:05:25;;;;;;;1.95;0.32;;;12.80;55.10;;;;;;6215150;23;20000;-74
2023/03/11 02:07:53;;;;;;;0.63;0.30;;;12.80;55.00;;;;;;6213973;23;20055;-74
2023/03/11 02:10:19;;;;;;;0.40;0.30;;;12.70;54.90;;;;;;6225304;23;20001;-74
2023/03/11 02:12:47;;;;;;;0.68;0.30;;;12.80;55.00;;;;;;6225257;23;20042;-74
2023/03/11 02:15:13;;;;;;;0.82;0.60;;;12.80;55.00;;;;;;6225290;23;20118;-74
2023/03/11 02:17:41;;;;;;;0.93;0.43;;;12.70;55.00;;;;;;6225009;23;20040;-74
2023/03/11 02:20:21;;;;;;;0.88;0.20;;;12.70;54.90;;;;;;6225145;23;20004;-74
2023/03/11 02:22:47;;;;;;;;;;;12.70;54.90;;;;;;6225718;23;19997;-75
2023/03/11 02:25:27;;;;;;;0.55;0.28;;;12.70;54.90;;;;;;6225100;23;19900;-74
2023/03/11 02:27:54;;;;;;;0.55;0.20;;;12.70;54.90;;;;;;6225184;23;20001;-71
2023/03/11 02:30:22;;;;;;;1.58;0.40;;;12.70;55.00;;;;;;6225074;23;19993;-71
2023/03/11 02:32:48;;;;;;;1.33;0.40;;;12.70;54.90;;;;;;6224982;23;20020;-71
2023/03/11 02:35:15;;;;;;;0.40;0.40;;;12.70;55.00;;;;;;6225043;23;20438;-71
2023/03/11 02:37:49;;;;;;;1.00;0.22;;;12.70;55.00;;;;;;6224972;23;20008;-71
2023/03/11 02:40:25;;;;;;;0.32;0.20;;;12.70;55.00;;;;;;6215182;23;20340;-71
2023/03/11 02:42:54;;;;;;;0.40;0.20;;;12.70;55.00;;;;;;6224916;23;20004;-71
2023/03/11 02:45:24;;;;;;;0.30;0.20;;;12.70;55.00;;;;;;6224921;23;20043;-72
2023/03/11 02:47:53;;;;;;;0.45;0.25;;;12.70;54.90;;;;;;6224811;23;20059;-71
2023/03/11 02:50:19;;;;;;;0.63;0.35;;;12.70;55.00;;;;;;6224929;23;20003;-71
2023/03/11 02:52:48;;;;;;;1.20;0.30;;;12.70;54.90;;;;;;6224807;23;19997;-71
2023/03/11 02:55:14;;;;;;;0.52;0.20;;;12.70;55.00;;;;;;6224680;23;19997;-71
2023/03/11 02:57:41;;;;;;;1.55;0.30;;;12.70;55.00;;;;;;6224740;23;20011;-71
2023/03/11 03:00:12;;;;;;;0.47;0.20;;;12.70;55.00;;;;;;6214878;23;19997;-71
2023/03/11 03:02:39;;;;;;;0.65;0.20;;;12.70;54.90;;;;;;6214435;23;20005;-71
2023/03/11 03:05:06;;;;;;;1.02;0.40;;;12.70;54.90;;;;;;6224646;23;19993;-73
2023/03/11 03:07:32;;;;;;;0.98;0.45;;;12.70;54.90;;;;;;6224665;23;19997;-74
2023/03/11 03:09:58;;;;;;;1.45;0.30;;;12.60;55.00;;;;;;6224427;23;20455;-74
2023/03/11 03:12:23;;;;;;;0.20;0.20;;;12.60;55.00;;;;;;6224655;23;19993;-74
2023/03/11 03:14:49;;;;;;;1.52;0.30;;;12.70;55.00;;;;;;6224614;23;20423;-74
2023/03/11 03:17:15;;;;;;;0.20;0.20;;;12.70;55.00;;;;;;6214642;23;20009;-74
2023/03/11 03:19:41;;;;;;;0.52;0.30;;;12.60;54.90;;;;;;6222958;23;20011;-74
2023/03/11 03:22:07;;;;;;;1.25;0.20;;;12.70;54.90;;;;;;6224614;23;20012;-74
2023/03/11 03:24:32;;;;;;;0.43;0.20;;;12.60;54.90;;;;;;6224532;23;20032;-74
2023/03/11 03:26:58;;;;;;;0.55;0.32;;;12.60;54.90;;;;;;6224470;23;20001;-74
2023/03/11 03:29:23;;;;;;;0.45;0.30;;;12.60;54.80;;;;;;6224833;23;20000;-74
2023/03/11 03:31:49;;;;;;;1.98;0.45;;;12.60;55.00;;;;;;6224333;23;20028;-74
2023/03/11 03:34:14;;;;;;;0.82;0.30;;;12.60;54.90;;;;;;6224392;23;20362;-73
2023/03/11 03:36:40;;;;;;;0.85;0.32;;;12.60;54.90;;;;;;6224328;23;20008;-74
2023/03/11 03:39:06;;;;;;;0.68;0.10;;;12.60;55.00;;;;;;6224417;23;19999;-74
2023/03/11 03:41:32;;;;;;;0.28;0.20;;;12.60;54.90;;;;;;6224376;23;20000;-74
2023/03/11 03:43:57;;;;;;;0.50;0.25;;;12.60;54.90;;;;;;6224371;23;20003;-74
2023/03/11 03:46:23;;;;;;;0.88;0.20;;;12.60;54.90;;;;;;6224376;23;19993;-74
2023/03/11 03:48:49;;;;;;;0.40;0.20;;;12.60;54.90;;;;;;6224351;23;20003;-74
2023/03/11 03:51:15;;;;;;;1.08;0.20;;;12.60;54.90;;;;;;6224295;23;19993;-74
2023/03/11 03:53:41;;;;;;;0.65;0.30;;;12.60;54.90;;;;;;6214231;23;20004;-74
2023/03/11 03:56:09;;;;;;;0.55;0.25;;;12.60;54.90;;;;;;6224188;23;20491;-74
2023/03/11 03:58:35;;;;;;;0.90;0.30;;;12.60;54.90;;;;;;6224353;23;20086;-74
2023/03/11 04:01:02;;;;;;;1.40;0.30;;;12.60;55.60;;;;;;6224439;23;20073;-71
2023/03/11 04:03:28;;;;;;;1.95;0.50;;;12.60;54.90;;;;;;6224001;23;20036;-71
2023/03/11 04:06:04;;;;;;;2.28;0.45;;;12.60;55.60;;;;;;6224227;23;20424;-71
2023/03/11 04:08:29;;;;;;;0.75;0.32;;;12.60;54.90;;;;;;6224236;23;20332;-71
2023/03/11 04:10:56;;;;;;;0.73;0.30;;;12.60;55.00;;;;;;6224181;23;19993;-71
2023/03/11 04:13:22;;;;;;;0.77;0.10;;;12.60;55.00;;;;;;6224191;23;20023;-71
2023/03/11 04:15:47;;;;;;;1.05;0.35;;;12.60;55.00;;;;;;6224075;23;20004;-71
2023/03/11 04:18:14;;;;;;;0.95;0.38;;;12.60;55.00;;;;;;6224126;23;20001;-71
2023/03/11 04:20:39;;;;;;;1.63;0.40;;;12.50;54.90;;;;;;6224360;23;19992;-71
2023/03/11 04:23:05;;;;;;;1.17;0.45;;;12.50;55.00;;;;;;6225805;23;20003;-71
2023/03/11 04:25:30;;;;;;;1.30;0.30;;;12.50;55.00;;;;;;6226148;23;20004;-71
2023/03/11 04:27:56;;;;;;;0.93;0.30;;;12.50;55.00;;;;;;6216080;23;20003;-71
2023/03/11 04:30:22;;;;;;;1.52;0.50;;;12.50;55.00;;;;;;6216262;23;19993;-71
2023/03/11 04:32:48;;;;;;;0.60;0.22;;;12.50;55.00;;;;;;6216381;23;20310;-71
2023/03/11 04:35:14;;;;;;;1.05;0.57;;;12.50;55.00;;;;;;6216237;23;20067;-71
2023/03/11 04:37:40;;;;;;;1.30;0.32;;;12.50;55.10;;;;;;6216007;23;20509;-71
2023/03/11 04:40:08;;;;;;;1.38;0.75;;;12.50;55.10;;;;;;6226040;23;20028;-71
2023/03/11 04:42:34;;;;;;;0.75;0.40;;;12.50;55.10;;;;;;6216327;23;20375;-71
2023/03/11 04:44:59;;;;;;;1.08;0.47;;;12.50;55.00;;;;;;6226000;23;20028;-71
2023/03/11 04:47:25;;;;;;;0.73;0.40;;;12.50;55.00;;;;;;6225923;23;20024;-71
2023/03/11 04:49:50;;;;;;;1.15;0.30;;;12.50;55.00;;;;;;6226331;23;19996;-71
2023/03/11 04:52:16;;;;;;;1.70;0.40;;;12.50;55.00;;;;;;6225970;23;20000;-71
2023/03/11 04:54:42;;;;;;;2.13;0.30;;;12.50;55.10;;;;;;6225932;23;20059;-71
2023/03/11 04:57:07;;;;;;;1.13;0.38;;;12.50;55.10;;;;;;6225728;23;20004;-71
2023/03/11 04:59:33;;;;;;;0.52;0.40;;;12.50;55.10;;;;;;6225856;23;20427;-71
2023/03/11 05:01:58;;;;;;;1.08;0.50;;;12.50;55.10;;;;;;6225736;23;20001;-71
2023/03/11 05:04:24;;;;;;;0.40;0.30;;;12.50;55.10;;;;;;6215492;23;20038;-71
2023/03/11 05:06:50;;;;;;;2.33;0.40;;;12.50;55.00;;;;;;6225784;23;20047;-71
2023/03/11 05:09:16;;;;;;;0.80;0.43;;;12.50;55.10;;;;;;6216141;23;19996;-71
2023/03/11 05:11:41;;;;;;;0.93;0.30;;;12.50;55.10;;;;;;6225685;23;20037;-71
2023/03/11 05:14:07;;;;;;;0.90;0.30;;;12.40;55.10;;;;;;6225734;23;19997;-71
2023/03/11 05:16:32;;;;;;;2.13;0.70;;;12.40;55.00;;;;;;6225681;23;20009;-71
2023/03/11 05:18:58;;;;;;;1.33;0.40;;;12.40;55.10;;;;;;6225779;23;20424;-71
2023/03/11 05:21:24;;;;;;;1.75;0.52;;;12.40;55.10;;;;;;6225655;23;20004;-71
2023/03/11 05:23:49;;;;;;;1.90;0.38;;;12.40;55.00;;;;;;6225660;23;20443;-71
2023/03/11 05:26:15;;;;;;;1.02;0.40;;;12.50;55.10;;;;;;6225667;23;20000;-71
2023/03/11 05:28:40;;;;;;;1.38;0.57;;;12.40;55.10;;;;;;6225451;23;19997;-71
2023/03/11 05:31:09;;;;;;;0.90;0.30;;;12.40;55.00;;;;;;6225589;23;20008;-71
2023/03/11 05:33:35;;;;;;;0.90;0.60;;;12.40;55.00;;;;;;6225361;23;20000;-71
2023/03/11 05:36:08;;;;;;;0.73;0.40;;;12.40;55.00;;;;;;6225416;23;20095;-71
2023/03/11 05:38:35;;;;;;;0.82;0.40;;;12.40;55.00;;;;;;6225362;23;20000;-71
2023/03/11 05:41:01;;;;;;;1.67;0.60;;;12.40;55.00;;;;;;6225488;23;20003;-71
2023/03/11 05:43:27;;;;;;;0.40;0.40;;;12.40;55.00;;;;;;6225435;23;20004;-71
2023/03/11 05:45:52;;;;;;;0.88;0.47;;;12.40;55.00;;;;;;6225385;23;20020;-71
2023/03/11 05:48:18;;;;;;;0.77;0.30;;;12.40;55.00;;;;;;6225485;23;19996;-71
2023/03/11 05:50:44;;;;;;;0.98;0.32;;;12.40;55.70;;;;;;6215568;23;19997;-71
2023/03/11 05:53:10;;;;;;;0.70;0.30;;;12.40;55.10;;;;;;6215644;23;20000;-71
2023/03/11 05:55:36;;;;;;;1.00;0.57;;;12.40;55.00;;;;;;6215101;23;20419;-71
2023/03/11 05:58:02;;;;;;;2.25;0.60;;;12.30;55.00;;;;;;6215140;23;20067;-71
2023/03/11 06:00:28;;;;;;;1.05;0.30;;;12.30;55.00;;;;;;6225264;23;19996;-71
2023/03/11 06:02:54;;;;;;;1.25;0.47;;;12.30;54.90;;;;;;6224976;23;20032;-71
2023/03/11 06:05:20;;;;;;;1.20;0.57;;;12.30;55.00;;;;;;6225207;23;20028;-71
2023/03/11 06:07:46;;;;;;;0.75;0.25;;;12.30;54.90;;;;;;6215160;23;20421;-71
2023/03/11 06:10:12;;;;;;;0.60;0.47;;;12.30;55.00;;;;;;6232161;23;20007;-71
2023/03/11 06:12:37;;;;;;;1.98;0.57;;;12.30;55.00;;;;;;6226724;23;20004;-71
2023/03/11 06:15:05;;;;;;;2.25;0.60;;;12.30;55.00;;;;;;6225154;23;20051;-72
2023/03/11 06:17:31;;;;;;;1.63;0.40;;;12.30;55.10;;;;;;6214893;23;20089;-72
2023/03/11 06:19:57;;;;;;;0.70;0.45;;;12.30;55.10;;;;;;6224981;23;20495;-72
2023/03/11 06:22:22;;;;;;;0.88;0.50;;;12.30;55.10;;;;;;6225105;23;20001;-72
2023/03/11 06:24:48;;;;;;;1.10;0.38;;;12.30;55.20;;;;;;6225033;23;20424;-70
2023/03/11 06:27:13;;;;;;;1.95;0.63;;;12.30;55.10;;;;;;6225024;23;19996;-75
2023/03/11 06:29:39;;;;;;;0.55;0.40;;;12.30;55.10;;;;;;6213424;23;20062;-76
2023/03/11 06:32:05;;;;;;;0.93;0.38;;;12.30;55.20;;;;;;6215164;23;19997;-75
2023/03/11 06:34:31;;;;;;;0.75;0.40;;;12.30;55.20;;;;;;6224943;23;20207;-74
2023/03/11 06:36:58;;;;;;;1.60;0.30;;;12.40;55.30;;;;;;6224828;23;20043;-74
2023/03/11 06:39:24;;;;;;;1.02;0.52;;;12.30;55.20;;;;;;6223426;23;20021;-74
2023/03/11 06:41:49;;;;;;;1.30;0.52;;;12.20;55.20;;;;;;6224823;23;20000;-74
2023/03/11 06:44:15;;;;;;;0.85;0.50;;;12.30;55.20;;;;;;6224497;23;20067;-71
2023/03/11 06:46:40;;;;;;;2.08;0.50;;;12.30;55.20;;;;;;6225027;23;20100;-74
2023/03/11 06:49:06;;;;;;;3.50;0.30;;;12.30;55.20;;;;;;6224794;23;19992;-74
2023/03/11 06:51:32;;;;;;;2.45;0.43;;;12.30;55.20;;;;;;6224821;23;20054;-74
2023/03/11 06:53:58;;;;;;;3.13;0.30;;;12.30;55.20;;;;;;6224693;23;20031;-75
2023/03/11 06:56:24;;;;;;;0.98;0.50;;;12.30;55.10;;;;;;6224645;23;20012;-74
2023/03/11 06:58:50;;;;;;;2.55;0.38;;;12.30;55.10;;;;;;6224664;23;20305;-74
2023/03/11 07:01:19;;;;;;;0.95;0.40;;;12.30;55.30;;;;;;6214858;23;20016;-74
2023/03/11 07:03:46;;;;;;;1.90;0.40;;;12.30;55.20;;;;;;6224594;23;20039;-74
2023/03/11 07:06:14;;;;;;;0.70;0.50;;;12.30;55.10;;;;;;6214920;23;20008;-75
2023/03/11 07:08:39;;;;;;;2.67;0.70;;;12.30;55.10;;;;;;6224634;23;19997;-74
2023/03/11 07:11:08;;;;;;;1.42;0.30;;;12.30;55.00;;;;;;6224636;23;20004;-74
2023/03/11 07:13:35;;;;;;;0.57;0.30;;;12.30;55.00;;;;;;6224590;23;20122;-74
2023/03/11 07:16:06;;;;;;;2.33;0.50;;;12.30;55.10;;;;;;6224479;23;20026;-74
2023/03/11 07:18:33;;;;;;;2.92;0.63;;;12.30;55.00;;;;;;6214928;23;19997;-74
2023/03/11 07:21:01;;;;;;;1.73;0.50;;;12.40;55.00;;;;;;6224584;23;20379;-71
2023/03/11 07:23:26;;;;;;;1.38;0.52;;;12.40;55.10;;;;;;6224625;23;20051;-73
2023/03/11 07:25:54;;;;;;;0.85;0.52;;;12.40;55.00;;;;;;6224470;23;20000;-74
2023/03/11 07:28:21;;;;;;;2.80;0.63;;;12.40;55.00;;;;;;6224605;23;20324;-75
2023/03/11 07:30:47;;;;;;;1.05;0.40;;;12.40;55.00;;;;;;6230282;23;20053;-75
2023/03/11 07:33:13;;;;;;;1.52;0.40;;;12.40;55.00;;;;;;6215215;23;20443;-74
2023/03/11 07:35:39;;;;;;;1.05;0.35;;;12.40;55.00;;;;;;6214607;23;20001;-73
2023/03/11 07:38:04;;;;;;;0.47;0.35;;;12.40;55.00;;;;;;6224344;23;20001;-73
2023/03/11 07:40:30;;;;;;;1.60;0.50;;;12.40;55.00;;;;;;6224467;23;20003;-71
2023/03/11 07:42:55;;;;;;;1.85;0.45;;;12.40;54.90;;;;;;6224439;23;19996;-71
2023/03/11 07:45:22;;;;;;;3.20;0.55;;;12.40;54.90;;;;;;6224333;23;20000;-71
2023/03/11 07:47:47;;;;;;;1.65;0.65;;;12.40;54.90;;;;;;6224400;23;20001;-71
2023/03/11 07:50:13;;;;;;;4.35;0.50;;;12.40;55.00;;;;;;6224292;23;20392;-71
2023/03/11 07:52:39;;;;;;;1.20;0.45;;;12.40;54.90;;;;;;6224409;23;20000;-71
2023/03/11 07:55:05;;;;;;;1.27;0.70;;;12.40;54.90;;;;;;6224227;23;20420;-71
2023/03/11 07:57:30;;;;;;;1.30;0.65;;;12.40;54.90;;;;;;6224122;23;20039;-71
2023/03/11 07:59:56;;;;;;;2.05;0.60;;;12.40;54.90;;;;;;6224255;23;19993;-71
2023/03/11 08:02:21;;;;;;;1.05;0.60;;;12.40;54.90;;;;;;6224735;23;20423;-71
2023/03/11 08:04:47;;;;;;;1.88;0.50;;;12.40;54.80;;;;;;6254647;23;20075;-71
2023/03/11 08:07:12;;;;;;;0.80;0.50;;;12.40;54.80;;;;;;6254448;23;20001;-71
2023/03/11 08:09:38;;;;;;;1.90;0.50;;;12.50;54.90;;;;;;6254643;23;20447;-71
2023/03/11 08:12:04;;;;;;;2.03;0.68;;;12.50;54.90;;;;;;6254606;23;20000;-71
2023/03/11 08:14:29;;;;;;;3.47;0.50;;;12.50;55.00;;;;;;6244741;23;19999;-71
2023/03/11 08:16:55;;;;;;;2.08;0.80;;;12.50;55.00;;;;;;6254558;23;20036;-75
2023/03/11 08:19:20;;;;;;;1.52;0.68;;;12.50;55.00;;;;;;6254490;23;20000;-74
2023/03/11 08:21:46;;;;;;;3.20;0.88;;;12.50;55.10;;;;;;6254627;23;20068;-73
2023/03/11 08:24:13;;;;;;;1.10;0.60;;;12.50;55.20;;;;;;6254526;23;20324;-74
2023/03/11 08:26:39;;;;;;;2.30;0.50;;;12.50;55.90;;;;;;6254520;23;20445;-74
2023/03/11 08:29:05;;;;;;;3.45;0.75;;;12.50;55.20;;;;;;6254603;23;19992;-74
2023/03/11 08:31:33;;;;;;;3.15;0.75;;;12.50;55.40;;;;;;6254536;23;20026;-73
2023/03/11 08:34:10;;;;;;;1.83;0.60;;;12.40;55.50;;;;;;6244747;23;20328;-74
2023/03/11 08:36:35;;;;;;;2.15;0.57;;;12.40;55.60;;;;;;6254429;23;20004;-73
2023/03/11 08:39:01;;;;;;;1.52;0.70;;;12.40;55.70;;;;;;6254517;23;20006;-74
2023/03/11 08:41:27;;;;;;;2.15;0.77;;;12.40;55.80;;;;;;6254547;23;20359;-73
2023/03/11 08:43:53;;;;;;;1.38;0.70;;;12.40;56.00;;;;;;6254540;23;19992;-73
2023/03/11 08:46:21;;;;;;;4.00;0.85;;;12.40;56.20;;;;;;6254488;23;20038;-74
2023/03/11 08:48:47;;;;;;;0.73;0.40;;;12.40;56.30;;;;;;6254513;23;20076;-73
2023/03/11 08:51:13;;;;;;;1.15;0.60;;;12.40;56.30;;;;;;6254491;23;20028;-73
2023/03/11 08:53:38;;;;;;;2.53;0.70;;;12.40;56.30;;;;;;6254480;23;19992;-73
2023/03/11 08:56:05;;;;;;;1.38;0.57;;;12.50;56.40;;;;;;6254429;23;20000;-73
2023/03/11 08:58:31;;;;;;;1.33;0.82;;;12.50;56.30;;;;;;6217366;23;20331;-73
2023/03/11 09:00:56;;;;;;;1.95;0.57;;;12.50;56.30;;;;;;6254425;23;19992;-74
2023/03/11 09:03:22;;;;;;;1.35;0.60;;;12.60;56.40;;;;;;6254270;23;20019;-75
2023/03/11 09:05:48;;;;;;;0.73;0.50;;;12.50;57.00;;;;;;6244611;23;19997;-75
2023/03/11 09:08:14;;;;;;;1.67;0.88;;;12.60;56.50;;;;;;6245001;23;20000;-73
2023/03/11 09:10:40;;;;;;;3.70;0.88;;;12.60;56.50;;;;;;6255857;23;20002;-74
2023/03/11 09:13:06;;;;;;;2.05;0.65;;;12.60;56.20;;;;;;6246388;23;19996;-71
2023/03/11 09:15:32;;;;;;;1.05;0.55;;;12.70;55.80;;;;;;6246258;23;20075;-71
2023/03/11 09:17:58;;;;;;;4.22;0.73;;;12.70;55.60;;;;;;6246144;23;20011;-71
2023/03/11 09:20:24;;;;;;;3.15;0.60;;;12.70;55.60;;;;;;6245895;23;20000;-71
2023/03/11 09:22:50;;;;;;;2.70;0.50;;;12.70;55.40;;;;;;6245865;23;19996;-71
2023/03/11 09:25:16;;;;;;;4.43;0.80;;;12.70;55.50;;;;;;6245876;23;20000;-71
2023/03/11 09:27:43;;;;;;;1.67;0.68;;;12.70;55.50;;;;;;6245715;23;20050;-71
2023/03/11 09:30:10;;;;;;;5.18;0.82;;;12.70;55.60;;;;;;6245870;23;20478;-72
2023/03/11 09:32:36;;;;;;;2.83;0.80;;;12.70;55.60;;;;;;6246210;23;20034;-71
2023/03/11 09:35:02;;;;;;;3.85;0.68;;;12.70;55.70;;;;;;6219108;23;19992;-71
2023/03/11 09:37:29;;;;;;;3.42;0.50;;;12.80;55.70;;;;;;6255865;23;20075;-71
2023/03/11 09:39:54;;;;;;;2.20;0.90;;;12.80;55.70;;;;;;6256044;23;19999;-71
2023/03/11 09:42:20;;;;;;;3.00;0.68;;;12.80;55.80;;;;;;6218877;23;20000;-71
2023/03/11 09:45:00;;;;;;;2.10;0.60;;;12.80;55.80;;;;;;6255798;23;19993;-71
2023/03/11 09:47:43;;;;;;;1.23;0.60;;;12.80;55.80;;;;;;6256012;23;20004;-71
2023/03/11 09:50:26;;;;;;;2.00;0.60;;;12.80;56.00;;;;;;6256073;23;20072;-74
2023/03/11 09:53:17;;;;;;;2.78;0.60;;;12.80;56.00;;;;;;6255879;23;19997;-74
2023/03/11 09:55:52;;;;;;;0.50;0.40;;;12.80;56.10;;;;;;6245771;23;20445;-74
2023/03/11 09:58:50;;;;;;;3.40;0.70;;;12.80;56.20;;;;;;6246025;23;19996;-74
2023/03/11 10:01:32;;;;;;;1.08;0.55;;;12.80;65.30;;;;;;6245526;23;19996;-74
2023/03/11 10:04:12;;;;;;;1.00;0.55;;;12.90;56.20;;;;;;6245674;23;20089;-75
2023/03/11 10:06:40;;;;;;;0.73;0.50;;;12.90;56.10;;;;;;6246060;23;20005;-72
2023/03/11 10:09:24;;;;;;;1.70;0.75;;;12.90;56.10;;;;;;6245960;23;20007;-71
2023/03/11 10:12:08;;;;;;;1.23;0.50;;;12.90;56.30;;;;;;6245557;23;19996;-71
2023/03/11 10:14:34;;;;;;;1.08;0.50;;;13.00;56.10;;;;;;6245930;23;19996;-71
2023/03/11 10:17:00;;;;;;;1.35;0.50;;;12.90;56.00;;;;;;6245284;23;20019;-71
2023/03/11 10:19:34;;;;;;;6.28;1.02;;;12.90;56.10;;;;;;6244801;23;19997;-71
2023/03/11 10:22:13;;;;;;;1.38;0.40;;;13.00;56.20;;;;;;6245712;23;20023;-71
2023/03/11 10:24:39;;;;;;;1.10;0.50;;;13.00;56.20;;;;;;6245761;23;20000;-71
2023/03/11 10:27:19;;;;;;;2.97;0.60;;;13.00;56.30;;;;;;6245474;23;19996;-71
2023/03/11 10:30:22;;;;;;;2.25;0.50;;;13.00;56.30;;;;;;6245630;23;20324;-71
2023/03/11 10:33:12;;;;;;;1.73;0.40;;;13.10;56.20;;;;;;6245634;23;20007;-71
2023/03/11 10:35:44;;;;;;;0.73;0.40;;;13.10;56.30;;;;;;6255415;23;19996;-71
2023/03/11 10:38:15;;;;;;;2.90;0.50;;;13.10;56.30;;;;;;6247298;23;20007;-71
2023/03/11 10:40:45;;;;;;;2.05;0.43;;;13.10;56.30;;;;;;6245592;23;20027;-71
2023/03/11 10:43:15;;;;;;;;;;;13.10;56.40;;;;;;6256019;23;20076;-71
2023/03/11 10:45:43;;;;;;;1.05;0.50;;;13.10;56.40;;;;;;6255318;23;19899;-74
2023/03/11 10:48:17;;;;;;;1.40;0.75;;;13.10;56.40;;;;;;6245452;23;20072;-74
2023/03/11 10:51:14;;;;;;;2.25;0.60;;;13.10;56.40;;;;;;6244978;23;20374;-74
2023/03/11 10:53:47;;;;;;;0.95;0.40;;;13.10;56.50;;;;;;6226190;23;20071;-74
2023/03/11 10:56:34;;;;;;;1.10;0.40;;;13.10;56.50;;;;;;6255254;23;20012;-75
2023/03/11 10:59:02;;;;;;;1.48;0.60;;;13.20;56.50;;;;;;6255257;23;20447;-74
2023/03/11 11:01:29;;;;;;;1.95;0.43;;;13.20;65.60;;;;;;6255181;23;20053;-74
2023/03/11 11:03:58;;;;;;;0.65;0.45;;;13.20;56.30;;;;;;6255062;23;20004;-74
2023/03/11 11:06:34;;;;;;;3.70;0.80;;;13.20;56.20;;;;;;6245348;23;19993;-74
2023/03/11 11:09:18;;;;;;;0.57;0.40;;;13.30;56.20;;;;;;6255138;23;20000;-74
2023/03/11 11:12:04;;;;;;;1.92;0.50;;;13.30;56.20;;;;;;6255180;23;20003;-74
2023/03/11 11:14:52;;;;;;;1.08;0.50;;;13.30;56.20;;;;;;6255116;23;19992;-74
2023/03/11 11:17:25;;;;;;;3.17;0.63;;;13.30;56.20;;;;;;6254842;23;20327;-74
2023/03/11 11:19:55;;;;;;;1.33;0.52;;;13.40;56.10;;;;;;6245152;23;20006;-74
2023/03/11 11:22:23;;;;;;;1.95;0.50;;;13.50;56.10;;;;;;6245593;23;20046;-74
2023/03/11 11:24:52;;;;;;;0.93;0.47;;;13.50;55.70;;;;;;6217988;23;20010;-74
2023/03/11 11:27:25;;;;;;;1.70;0.50;;;13.60;55.70;;;;;;6245083;23;19992;-74
2023/03/11 11:30:06;;;;;;;1.63;0.52;;;13.70;55.50;;;;;;6254967;23;19996;-74
2023/03/11 11:32:32;;;;;;;2.47;0.50;;;13.80;55.30;;;;;;6254914;23;20023;-75
2023/03/11 11:35:00;;;;;;;1.52;0.40;;;13.90;55.10;;;;;;6254901;23;20000;-74
2023/03/11 11:37:30;;;;;;;1.08;0.30;;;14.00;54.90;;;;;;6244886;23;20031;-74
2023/03/11 11:40:09;;;;;;;1.02;0.50;;;14.10;54.50;;;;;;6245011;23;20348;-71
2023/03/11 11:42:37;;;;;;;2.05;0.63;;;14.20;54.30;;;;;;6245125;23;20051;-71
2023/03/11 11:45:09;;;;;;;0.70;0.50;;;14.30;54.20;;;;;;6254754;23;19992;-71
2023/03/11 11:47:36;;;;;;;1.70;0.82;;;14.40;54.10;;;;;;6254784;23;19993;-71
2023/03/11 11:50:32;;;;;;;0.95;0.50;;;14.40;53.80;;;;;;6254762;23;20003;-71
2023/03/11 11:53:11;;;;;;;1.00;0.55;;;14.50;53.70;;;;;;6243311;23;19996;-71
2023/03/11 11:55:42;;;;;;;0.80;0.50;;;14.60;53.60;;;;;;6254790;23;20003;-71
2023/03/11 11:58:11;;;;;;;1.13;0.55;;;14.70;53.70;;;;;;6254784;23;20439;-71
2023/03/11 12:00:40;;;;;;;1.98;0.50;;;14.70;53.60;;;;;;6254833;23;20057;-72
2023/03/11 12:03:45;;;;;;;1.90;0.63;;;14.80;53.50;;;;;;6254522;23;20019;-72
2023/03/11 12:06:41;;;;;;;2.55;0.65;;;14.90;53.40;;;;;;6206890;23;20336;-72
2023/03/11 12:09:37;;;;;;;0.95;0.57;;;14.90;53.30;;;;;;6232564;23;20000;-72
2023/03/11 12:12:26;;;;;;;3.95;0.70;;;15.00;53.20;;;;;;6254780;23;20075;-72
2023/03/11 12:15:27;;;;;;;1.75;0.57;;;15.10;53.20;;;;;;6254760;23;20004;-72
2023/03/11 12:18:02;;;;;;;1.38;0.55;;;15.20;53.20;;;;;;6229710;23;20012;-72
2023/03/11 12:20:35;;;;;;;1.67;0.60;;;15.20;53.10;;;;;;6254721;23;20081;-72
2023/03/11 12:23:32;;;;;;;0.55;0.47;;;15.30;53.10;;;;;;6254715;23;20018;-72
2023/03/11 12:26:17;;;;;;;0.90;0.60;;;15.30;53.00;;;;;;6254766;23;20078;-72
2023/03/11 12:29:00;;;;;;;2.50;0.50;;;15.40;53.00;;;;;;6254814;23;20309;-72
2023/03/11 12:31:30;;;;;;;0.73;0.50;;;15.50;52.80;;;;;;6254541;23;19996;-72
2023/03/11 12:34:01;;;;;;;1.20;0.40;;;15.50;52.80;;;;;;6244476;23;19993;-75
2023/03/11 12:36:37;;;;;;;0.75;0.50;;;15.60;52.70;;;;;;6254470;23;20007;-74
2023/03/11 12:39:18;;;;;;;2.17;0.63;;;15.70;52.50;;;;;;6255007;23;20370;-74
2023/03/11 12:41:43;;;;;;;1.38;0.65;;;15.70;52.40;;;;;;6254646;23;20051;-74
2023/03/11 12:44:25;;;;;;;1.05;0.40;;;15.90;52.50;;;;;;6256242;23;20000;-75
2023/03/11 12:46:56;;;;;;;2.00;0.50;;;15.90;52.40;;;;;;6246245;23;20004;-74
2023/03/11 12:49:30;;;;;;;1.02;0.40;;;15.90;52.30;;;;;;6246542;23;19997;-74
2023/03/11 12:52:01;;;;;;;1.48;0.40;;;16.00;52.40;;;;;;6246166;23;20046;-74
2023/03/11 12:54:36;;;;;;;1.05;0.50;;;16.00;52.40;;;;;;6246259;23;19996;-71
2023/03/11 12:57:16;;;;;;;3.25;0.60;;;16.10;52.50;;;;;;6256298;23;20016;-71